createdAt,value
2017-08-18T00:00:46.252Z,1010.7
2017-08-18T00:01:47.430Z,1010.7
2017-08-18T00:02:48.139Z,1010.7
2017-08-18T00:03:48.889Z,1010.7
2017-08-18T00:04:49.570Z,1010.7
2017-08-18T00:05:50.265Z,1010.7
2017-08-18T00:06:50.963Z,1010.7
2017-08-18T00:07:51.915Z,1010.7
2017-08-18T00:08:52.599Z,1010.6
2017-08-18T00:09:53.349Z,1010.6
2017-08-18T00:10:54.049Z,1010.6
2017-08-18T00:11:54.934Z,1010.6
2017-08-18T00:12:55.634Z,1010.5
2017-08-18T00:13:56.576Z,1010.5
2017-08-18T00:14:57.267Z,1010.5
2017-08-18T00:15:58.005Z,1010.4
2017-08-18T00:16:58.761Z,1010.4
2017-08-18T00:17:59.464Z,1010.4
2017-08-18T00:19:00.122Z,1010.5
2017-08-18T00:20:01.128Z,1010.4
2017-08-18T00:21:01.818Z,1010.4
2017-08-18T00:22:02.738Z,1010.4
2017-08-18T00:23:03.396Z,1010.4
2017-08-18T00:24:04.079Z,1010.4
2017-08-18T00:25:04.827Z,1010.3
2017-08-18T00:26:05.762Z,1010.3
2017-08-18T00:27:06.461Z,1010.3
2017-08-18T00:28:07.135Z,1010.3
2017-08-18T00:29:07.825Z,1010.3
2017-08-18T00:30:08.525Z,1010.3
2017-08-18T00:31:09.217Z,1010.3
2017-08-18T00:32:10.214Z,1010.3
2017-08-18T00:33:10.891Z,1010.3
2017-08-18T00:34:11.916Z,1010.3
2017-08-18T00:35:12.607Z,1010.3
2017-08-18T00:36:13.325Z,1010.3
2017-08-18T00:37:14.045Z,1010.2
2017-08-18T00:38:15.050Z,1010.2
2017-08-18T00:39:15.730Z,1010.3
2017-08-18T00:40:16.479Z,1010.3
2017-08-18T00:41:17.170Z,1010.3
2017-08-18T00:42:17.870Z,1010.3
2017-08-18T00:43:18.625Z,1010.4
2017-08-18T00:44:19.572Z,1010.4
2017-08-18T00:45:20.257Z,1010.4
2017-08-18T00:46:20.944Z,1010.4
2017-08-18T00:47:21.634Z,1010.4
2017-08-18T00:48:22.326Z,1010.4
2017-08-18T00:49:23.103Z,1010.3
2017-08-18T00:50:24.092Z,1010.3
2017-08-18T00:51:24.770Z,1010.3
2017-08-18T00:52:25.484Z,1010.3
2017-08-18T00:53:26.176Z,1010.2
2017-08-18T00:54:27.039Z,1010.2
2017-08-18T00:55:27.729Z,1010.2
2017-08-18T00:56:28.743Z,1010.2
2017-08-18T00:57:29.518Z,1010.2
2017-08-18T00:58:30.185Z,1010.2
2017-08-18T00:59:30.927Z,1010.2
2017-08-18T01:00:31.596Z,1010.2
2017-08-18T01:01:32.294Z,1010.2
2017-08-18T01:02:33.214Z,1010.2
2017-08-18T01:03:33.982Z,1010.1
2017-08-18T01:04:34.903Z,1010.1
2017-08-18T01:05:35.597Z,1010.1
2017-08-18T01:06:36.296Z,1010.1
2017-08-18T01:07:36.984Z,1010.0
2017-08-18T01:08:37.938Z,1010.0
2017-08-18T01:09:38.799Z,1010.0
2017-08-18T01:10:39.535Z,1010.0
2017-08-18T01:11:40.213Z,1009.9
2017-08-18T01:12:40.893Z,1009.9
2017-08-18T01:13:41.617Z,1010.0
2017-08-18T01:14:42.752Z,1010.0
2017-08-18T01:15:43.463Z,1010.0
2017-08-18T01:16:44.196Z,1010.0
2017-08-18T01:17:44.887Z,1009.9
2017-08-18T01:18:45.620Z,1009.9
2017-08-18T01:19:46.365Z,1009.9
2017-08-18T01:20:47.130Z,1009.8
2017-08-18T01:21:48.055Z,1009.8
2017-08-18T01:22:48.743Z,1009.8
2017-08-18T01:23:49.441Z,1009.8
2017-08-18T01:24:50.117Z,1009.8
2017-08-18T01:25:50.813Z,1009.8
2017-08-18T01:26:51.507Z,1009.9
2017-08-18T01:27:52.547Z,1009.9
2017-08-18T01:28:53.225Z,1010.0
2017-08-18T01:29:53.896Z,1010.0
2017-08-18T01:30:54.599Z,1010.0
2017-08-18T01:31:55.342Z,1009.9
2017-08-18T01:32:56.035Z,1009.9
2017-08-18T01:33:57.021Z,1010.0
2017-08-18T01:34:57.719Z,1010.0
2017-08-18T01:35:58.461Z,1009.9
2017-08-18T01:36:59.189Z,1010.0
2017-08-18T01:37:59.875Z,1010.0
2017-08-18T01:39:00.569Z,1009.9
2017-08-18T01:40:01.550Z,1009.9
2017-08-18T01:41:02.263Z,1009.9
2017-08-18T01:42:02.946Z,1009.8
2017-08-18T01:43:03.636Z,1009.8
2017-08-18T01:44:04.322Z,1009.8
2017-08-18T01:45:05.016Z,1009.9
2017-08-18T01:46:06.049Z,1009.9
2017-08-18T01:47:06.794Z,1009.9
2017-08-18T01:48:07.462Z,1009.9
2017-08-18T01:49:08.148Z,1009.9
2017-08-18T01:50:08.893Z,1009.9
2017-08-18T01:51:09.581Z,1010.0
2017-08-18T01:52:10.321Z,1009.9
2017-08-18T01:53:11.290Z,1010.0
2017-08-18T01:54:12.040Z,1009.9
2017-08-18T01:55:12.788Z,1010.0
2017-08-18T01:56:13.508Z,1010.0
2017-08-18T01:57:14.184Z,1010.0
2017-08-18T01:58:14.945Z,1010.1
2017-08-18T01:59:15.994Z,1010.0
2017-08-18T02:00:16.671Z,1010.0
2017-08-18T02:01:17.359Z,1010.0
2017-08-18T02:02:18.289Z,1010.0
2017-08-18T02:03:19.006Z,1009.9
2017-08-18T02:04:19.740Z,1009.9
2017-08-18T02:05:21.020Z,1009.9
2017-08-18T02:06:21.759Z,1009.9
2017-08-18T02:07:22.701Z,1009.9
2017-08-18T02:08:23.722Z,1009.9
2017-08-18T02:09:24.422Z,1009.8
2017-08-18T02:10:25.083Z,1009.8
2017-08-18T02:11:26.011Z,1009.8
2017-08-18T02:12:26.824Z,1009.8
2017-08-18T02:13:27.521Z,1009.9
2017-08-18T02:14:28.239Z,1009.9
2017-08-18T02:15:28.965Z,1009.9
2017-08-18T02:16:29.686Z,1009.9
2017-08-18T02:17:30.749Z,1009.9
2017-08-18T02:18:31.459Z,1010.0
2017-08-18T02:19:32.456Z,1010.0
2017-08-18T02:20:33.222Z,1010.1
2017-08-18T02:21:33.937Z,1010.1
2017-08-18T02:22:34.656Z,1010.2
2017-08-18T02:23:35.631Z,1010.1
2017-08-18T02:24:36.363Z,1010.1
2017-08-18T02:25:37.040Z,1010.0
2017-08-18T02:26:37.729Z,1010.0
2017-08-18T02:27:38.417Z,1010.1
2017-08-18T02:28:39.167Z,1010.0
2017-08-18T02:29:40.127Z,1010.1
2017-08-18T02:30:40.791Z,1010.1
2017-08-18T02:31:41.802Z,1010.1
2017-08-18T02:32:42.654Z,1010.1
2017-08-18T02:33:43.341Z,1010.1
2017-08-18T02:34:44.024Z,1010.0
2017-08-18T02:35:44.777Z,1010.1
2017-08-18T02:36:45.942Z,1010.2
2017-08-18T02:37:46.674Z,1010.3
2017-08-18T02:38:47.372Z,1010.3
2017-08-18T02:39:48.073Z,1010.4
2017-08-18T02:40:48.752Z,1010.3
2017-08-18T02:41:49.469Z,1010.4
2017-08-18T02:42:50.530Z,1010.4
2017-08-18T02:43:51.222Z,1010.4
2017-08-18T02:44:51.963Z,1010.4
2017-08-18T02:45:52.649Z,1010.4
2017-08-18T02:46:53.344Z,1010.4
2017-08-18T02:47:54.017Z,1010.5
2017-08-18T02:48:55.103Z,1010.4
2017-08-18T02:49:56.108Z,1010.4
2017-08-18T02:50:56.796Z,1010.3
2017-08-18T02:51:57.504Z,1010.2
2017-08-18T02:52:58.177Z,1010.2
2017-08-18T02:53:58.895Z,1010.1
2017-08-18T02:54:59.840Z,1010.1
2017-08-18T02:56:00.531Z,1010.1
2017-08-18T02:57:01.532Z,1010.2
2017-08-18T02:58:02.270Z,1010.2
2017-08-18T02:59:02.965Z,1010.2
2017-08-18T03:00:03.677Z,1010.1
2017-08-18T03:01:04.652Z,1010.0
2017-08-18T03:02:05.563Z,1010.0
2017-08-18T03:03:06.227Z,1009.9
2017-08-18T03:04:06.922Z,1009.9
2017-08-18T03:05:07.670Z,1009.8
2017-08-18T03:06:08.362Z,1009.8
2017-08-18T03:07:09.275Z,1009.9
2017-08-18T03:08:09.987Z,1009.9
2017-08-18T03:09:10.671Z,1009.9
2017-08-18T03:10:11.553Z,1009.8
2017-08-18T03:11:12.213Z,1009.9
2017-08-18T03:12:12.894Z,1009.8
2017-08-18T03:13:13.829Z,1009.8
2017-08-18T03:14:14.528Z,1009.8
2017-08-18T03:15:15.634Z,1009.8
2017-08-18T03:16:16.322Z,1009.7
2017-08-18T03:17:17.010Z,1009.6
2017-08-18T03:18:17.705Z,1009.6
2017-08-18T03:19:18.685Z,1009.6
2017-08-18T03:20:19.385Z,1009.7
2017-08-18T03:21:20.069Z,1009.8
2017-08-18T03:22:20.772Z,1009.7
2017-08-18T03:23:21.472Z,1009.7
2017-08-18T03:24:22.480Z,1009.7
2017-08-18T03:25:23.435Z,1009.7
2017-08-18T03:26:24.182Z,1009.7
2017-08-18T03:27:24.929Z,1009.7
2017-08-18T03:28:25.680Z,1009.7
2017-08-18T03:29:26.357Z,1009.7
2017-08-18T03:30:27.241Z,1009.7
2017-08-18T03:31:28.248Z,1009.7
2017-08-18T03:32:28.923Z,1009.7
2017-08-18T03:33:29.938Z,1009.7
2017-08-18T03:34:30.627Z,1009.8
2017-08-18T03:35:31.532Z,1009.8
2017-08-18T03:36:32.222Z,1009.9
2017-08-18T03:37:33.179Z,1009.9
2017-08-18T03:38:33.892Z,1010.0
2017-08-18T03:39:34.546Z,1010.0
2017-08-18T03:40:35.237Z,1010.0
2017-08-18T03:41:36.025Z,1010.0
2017-08-18T03:42:36.832Z,1010.0
2017-08-18T03:43:37.772Z,1009.9
2017-08-18T03:44:38.423Z,1009.8
2017-08-18T03:45:39.123Z,1009.8
2017-08-18T03:46:39.813Z,1009.8
2017-08-18T03:47:40.554Z,1009.8
2017-08-18T03:48:41.248Z,1009.9
2017-08-18T03:49:41.997Z,1009.9
2017-08-18T03:50:43.046Z,1009.9
2017-08-18T03:51:43.833Z,1010.0
2017-08-18T03:52:44.523Z,1010.0
2017-08-18T03:53:45.274Z,1010.0
2017-08-18T03:54:45.937Z,1010.1
2017-08-18T03:55:46.629Z,1010.1
2017-08-18T03:56:47.772Z,1010.0
2017-08-18T03:57:48.459Z,1009.9
2017-08-18T03:58:49.149Z,1009.8
2017-08-18T03:59:49.834Z,1009.8
2017-08-18T04:00:50.540Z,1009.8
2017-08-18T04:01:51.269Z,1009.8
2017-08-18T04:02:52.198Z,1009.9
2017-08-18T04:03:52.906Z,1009.9
2017-08-18T04:04:53.583Z,1009.9
2017-08-18T04:05:54.268Z,1009.8
2017-08-18T04:06:55.074Z,1009.8
2017-08-18T04:07:55.798Z,1009.8
2017-08-18T04:08:56.755Z,1009.7
2017-08-18T04:09:57.446Z,1009.7
2017-08-18T04:10:58.171Z,1009.8
2017-08-18T04:11:58.989Z,1009.8
2017-08-18T04:12:59.650Z,1009.9
2017-08-18T04:14:00.328Z,1009.9
2017-08-18T04:15:01.316Z,1009.9
2017-08-18T04:16:02.026Z,1009.8
2017-08-18T04:17:02.751Z,1009.8
2017-08-18T04:18:03.447Z,1009.8
2017-08-18T04:19:04.276Z,1009.8
2017-08-18T04:20:04.950Z,1009.8
2017-08-18T04:21:05.989Z,1009.8
2017-08-18T04:22:06.660Z,1009.7
2017-08-18T04:23:07.405Z,1009.7
2017-08-18T04:24:08.109Z,1009.7
2017-08-18T04:25:08.800Z,1009.7
2017-08-18T04:26:09.550Z,1009.7
2017-08-18T04:27:10.473Z,1009.8
2017-08-18T04:28:11.171Z,1009.8
2017-08-18T04:29:11.875Z,1009.8
2017-08-18T04:30:12.579Z,1009.8
2017-08-18T04:31:13.297Z,1009.8
2017-08-18T04:32:14.024Z,1009.8
2017-08-18T04:33:14.977Z,1009.8
2017-08-18T04:34:15.673Z,1009.8
2017-08-18T04:35:16.428Z,1009.8
2017-08-18T04:36:17.112Z,1009.7
2017-08-18T04:37:17.809Z,1009.6
2017-08-18T04:38:18.485Z,1009.6
2017-08-18T04:39:19.622Z,1009.6
2017-08-18T04:40:20.353Z,1009.6
2017-08-18T04:41:21.013Z,1009.6
2017-08-18T04:42:21.693Z,1009.6
2017-08-18T04:43:22.384Z,1009.7
2017-08-18T04:44:23.390Z,1009.7
2017-08-18T04:45:24.325Z,1009.7
2017-08-18T04:46:25.040Z,1009.7
2017-08-18T04:47:25.780Z,1009.7
2017-08-18T04:48:26.516Z,1009.7
2017-08-18T04:49:27.203Z,1009.7
2017-08-18T04:50:27.888Z,1009.8
2017-08-18T04:51:28.873Z,1009.8
2017-08-18T04:52:29.557Z,1009.9
2017-08-18T04:53:30.278Z,1009.9
2017-08-18T04:54:30.930Z,1010.0
2017-08-18T04:55:31.641Z,1010.0
2017-08-18T04:56:32.383Z,1010.0
2017-08-18T04:57:33.318Z,1010.1
2017-08-18T04:58:34.052Z,1010.1
2017-08-18T04:59:34.705Z,1010.1
2017-08-18T05:00:35.472Z,1010.1
2017-08-18T05:01:36.142Z,1010.1
2017-08-18T05:02:36.828Z,1010.1
2017-08-18T05:03:37.788Z,1010.0
2017-08-18T05:04:38.469Z,1010.0
2017-08-18T05:05:39.156Z,1009.9
2017-08-18T05:06:39.891Z,1009.8
2017-08-18T05:07:40.659Z,1009.7
2017-08-18T05:08:41.338Z,1009.6
2017-08-18T05:09:42.284Z,1009.5
2017-08-18T05:10:43.002Z,1009.5
2017-08-18T05:11:43.673Z,1009.5
2017-08-18T05:12:44.373Z,1009.6
2017-08-18T05:13:45.097Z,1009.5
2017-08-18T05:14:45.841Z,1009.5
2017-08-18T05:15:47.014Z,1009.5
2017-08-18T05:16:47.665Z,1009.5
2017-08-18T05:17:48.360Z,1009.5
2017-08-18T05:18:49.064Z,1009.4
2017-08-18T05:19:49.750Z,1009.5
2017-08-18T05:20:50.429Z,1009.5
2017-08-18T05:21:51.193Z,1009.4
2017-08-18T05:22:52.213Z,1009.4
2017-08-18T05:23:52.914Z,1009.4
2017-08-18T05:24:53.592Z,1009.4
2017-08-18T05:25:54.339Z,1009.4
2017-08-18T05:26:55.088Z,1009.4
2017-08-18T05:27:55.762Z,1009.4
2017-08-18T05:28:56.713Z,1009.4
2017-08-18T05:29:57.411Z,1009.3
2017-08-18T05:30:58.107Z,1009.3
2017-08-18T05:31:58.795Z,1009.3
2017-08-18T05:32:59.506Z,1009.4
2017-08-18T05:34:00.182Z,1009.5
2017-08-18T05:35:01.119Z,1009.5
2017-08-18T05:36:01.828Z,1009.5
2017-08-18T05:37:02.512Z,1009.5
2017-08-18T05:38:03.201Z,1009.5
2017-08-18T05:39:03.899Z,1009.4
2017-08-18T05:40:04.580Z,1009.4
2017-08-18T05:41:05.547Z,1009.4
2017-08-18T05:42:06.317Z,1009.4
2017-08-18T05:43:07.175Z,1009.4
2017-08-18T05:44:07.949Z,1009.4
2017-08-18T05:45:08.630Z,1009.4
2017-08-18T05:46:09.331Z,1009.3
2017-08-18T05:47:10.255Z,1009.4
2017-08-18T05:48:10.976Z,1009.3
2017-08-18T05:49:11.704Z,1009.3
2017-08-18T05:50:12.371Z,1009.3
2017-08-18T05:51:13.088Z,1009.3
2017-08-18T05:52:13.782Z,1009.4
2017-08-18T05:53:14.942Z,1009.4
2017-08-18T05:54:15.678Z,1009.4
2017-08-18T05:55:16.411Z,1009.4
2017-08-18T05:56:17.166Z,1009.4
2017-08-18T05:57:17.879Z,1009.4
2017-08-18T05:58:18.626Z,1009.3
2017-08-18T05:59:19.844Z,1009.3
2017-08-18T06:00:20.516Z,1009.3
2017-08-18T06:01:21.180Z,1009.3
2017-08-18T06:02:21.897Z,1009.3
2017-08-18T06:03:22.962Z,1009.3
2017-08-18T06:04:23.758Z,1009.3
2017-08-18T06:05:24.722Z,1009.3
2017-08-18T06:06:25.454Z,1009.3
2017-08-18T06:07:26.123Z,1009.3
2017-08-18T06:08:26.954Z,1009.2
2017-08-18T06:09:27.770Z,1009.3
2017-08-18T06:10:28.461Z,1009.3
2017-08-18T06:11:29.459Z,1009.3
2017-08-18T06:12:30.157Z,1009.3
2017-08-18T06:13:31.038Z,1009.3
2017-08-18T06:14:32.265Z,1009.3
2017-08-18T06:15:33.019Z,1009.3
2017-08-18T06:16:33.780Z,1009.3
2017-08-18T06:17:34.779Z,1009.3
2017-08-18T06:18:35.504Z,1009.2
2017-08-18T06:19:36.188Z,1009.3
2017-08-18T06:20:36.876Z,1009.3
2017-08-18T06:21:37.639Z,1009.3
2017-08-18T06:22:38.324Z,1009.3
2017-08-18T06:23:39.307Z,1009.3
2017-08-18T06:24:40.013Z,1009.3
2017-08-18T06:25:40.706Z,1009.3
2017-08-18T06:26:41.392Z,1009.3
2017-08-18T06:27:42.168Z,1009.2
2017-08-18T06:28:42.857Z,1009.2
2017-08-18T06:29:43.959Z,1009.1
2017-08-18T06:30:44.733Z,1009.2
2017-08-18T06:31:45.400Z,1009.2
2017-08-18T06:32:46.084Z,1009.1
2017-08-18T06:33:46.776Z,1009.1
2017-08-18T06:34:48.201Z,1009.1
2017-08-18T06:35:49.113Z,1009.2
2017-08-18T06:36:49.800Z,1009.2
2017-08-18T06:37:50.548Z,1009.2
2017-08-18T06:38:51.247Z,1009.2
2017-08-18T06:39:51.957Z,1009.3
2017-08-18T06:40:52.621Z,1009.3
2017-08-18T06:41:53.563Z,1009.3
2017-08-18T06:42:54.282Z,1009.3
2017-08-18T06:43:54.966Z,1009.3
2017-08-18T06:44:55.704Z,1009.2
2017-08-18T06:45:56.389Z,1009.3
2017-08-18T06:46:57.099Z,1009.3
2017-08-18T06:47:58.315Z,1009.3
2017-08-18T06:48:59.017Z,1009.3
2017-08-18T06:49:59.855Z,1009.3
2017-08-18T06:51:00.556Z,1009.3
2017-08-18T06:52:01.307Z,1009.4
2017-08-18T06:53:02.299Z,1009.4
2017-08-18T06:54:03.245Z,1009.4
2017-08-18T06:55:03.986Z,1009.5
2017-08-18T06:56:04.651Z,1009.6
2017-08-18T06:57:05.337Z,1009.6
2017-08-18T06:58:06.036Z,1009.6
2017-08-18T06:59:06.743Z,1009.7
2017-08-18T07:00:07.821Z,1009.7
2017-08-18T07:01:08.572Z,1009.7
2017-08-18T07:02:09.261Z,1009.8
2017-08-18T07:03:09.962Z,1009.7
2017-08-18T07:04:10.658Z,1009.8
2017-08-18T07:05:11.357Z,1009.8
2017-08-18T07:06:12.342Z,1009.8
2017-08-18T07:07:13.102Z,1009.8
2017-08-18T07:08:13.780Z,1009.8
2017-08-18T07:09:14.469Z,1009.8
2017-08-18T07:10:15.324Z,1009.9
2017-08-18T07:11:16.113Z,1009.9
2017-08-18T07:12:17.144Z,1009.9
2017-08-18T07:13:17.806Z,1009.9
2017-08-18T07:14:18.528Z,1010.0
2017-08-18T07:15:19.455Z,1010.0
2017-08-18T07:16:20.160Z,1010.0
2017-08-18T07:17:20.914Z,1010.0
2017-08-18T07:18:21.679Z,1010.0
2017-08-18T07:19:22.642Z,1010.0
2017-08-18T07:20:23.389Z,1009.9
2017-08-18T07:21:24.112Z,1009.9
2017-08-18T07:22:24.834Z,1009.9
2017-08-18T07:23:25.583Z,1009.9
2017-08-18T07:24:26.275Z,1009.8
2017-08-18T07:25:27.270Z,1009.8
2017-08-18T07:26:28.016Z,1009.7
2017-08-18T07:27:28.729Z,1009.6
2017-08-18T07:28:29.430Z,1009.6
2017-08-18T07:29:30.104Z,1009.6
2017-08-18T07:30:30.808Z,1009.6
2017-08-18T07:31:31.748Z,1009.6
2017-08-18T07:32:32.433Z,1009.7
2017-08-18T07:33:33.117Z,1009.6
2017-08-18T07:34:33.810Z,1009.6
2017-08-18T07:35:34.520Z,1009.6
2017-08-18T07:36:35.297Z,1009.6
2017-08-18T07:37:36.240Z,1009.7
2017-08-18T07:38:37.008Z,1009.7
2017-08-18T07:39:37.702Z,1009.7
2017-08-18T07:40:38.690Z,1009.6
2017-08-18T07:41:39.506Z,1009.6
2017-08-18T07:42:40.227Z,1009.7
2017-08-18T07:43:41.236Z,1009.7
2017-08-18T07:44:41.916Z,1009.7
2017-08-18T07:45:42.614Z,1009.7
2017-08-18T07:46:43.368Z,1009.7
2017-08-18T07:47:44.083Z,1009.7
2017-08-18T07:48:44.774Z,1009.7
2017-08-18T07:49:45.474Z,1009.7
2017-08-18T07:50:46.481Z,1009.7
2017-08-18T07:51:47.151Z,1009.7
2017-08-18T07:52:47.876Z,1009.7
2017-08-18T07:53:48.558Z,1009.7
2017-08-18T07:54:49.262Z,1009.7
2017-08-18T07:55:49.995Z,1009.7
2017-08-18T07:56:50.990Z,1009.7
2017-08-18T07:57:51.897Z,1009.7
2017-08-18T07:58:52.608Z,1009.7
2017-08-18T07:59:53.280Z,1009.7
2017-08-18T08:00:53.980Z,1009.7
2017-08-18T08:01:54.731Z,1009.6
2017-08-18T08:02:55.705Z,1009.7
2017-08-18T08:03:56.380Z,1009.7
2017-08-18T08:04:57.153Z,1009.6
2017-08-18T08:05:57.909Z,1009.7
2017-08-18T08:06:58.618Z,1009.6
2017-08-18T08:07:59.314Z,1009.6
2017-08-18T08:09:00.295Z,1009.7
2017-08-18T08:10:01.012Z,1009.7
2017-08-18T08:11:01.706Z,1009.7
2017-08-18T08:12:02.394Z,1009.7
2017-08-18T08:13:03.085Z,1009.7
2017-08-18T08:14:03.825Z,1009.7
2017-08-18T08:15:04.828Z,1009.6
2017-08-18T08:16:05.535Z,1009.6
2017-08-18T08:17:06.511Z,1009.6
2017-08-18T08:18:07.208Z,1009.6
2017-08-18T08:19:07.902Z,1009.6
2017-08-18T08:20:08.606Z,1009.6
2017-08-18T08:21:09.912Z,1009.6
2017-08-18T08:22:10.586Z,1009.6
2017-08-18T08:23:11.351Z,1009.6
2017-08-18T08:24:12.037Z,1009.5
2017-08-18T08:25:12.778Z,1009.5
2017-08-18T08:26:13.483Z,1009.5
2017-08-18T08:27:14.711Z,1009.5
2017-08-18T08:28:15.424Z,1009.5
2017-08-18T08:29:16.227Z,1009.5
2017-08-18T08:30:17.020Z,1009.4
2017-08-18T08:31:17.739Z,1009.4
2017-08-18T08:32:18.399Z,1009.4
2017-08-18T08:33:19.085Z,1009.4
2017-08-18T08:34:20.122Z,1009.3
2017-08-18T08:35:20.831Z,1009.3
2017-08-18T08:36:21.589Z,1009.3
2017-08-18T08:37:22.648Z,1009.2
2017-08-18T08:38:23.394Z,1009.3
2017-08-18T08:39:24.076Z,1009.3
2017-08-18T08:40:25.038Z,1009.2
2017-08-18T08:41:25.756Z,1009.2
2017-08-18T08:42:26.432Z,1009.2
2017-08-18T08:43:27.134Z,1009.1
2017-08-18T08:44:27.820Z,1009.1
2017-08-18T08:45:28.512Z,1009.1
2017-08-18T08:46:29.509Z,1009.1
2017-08-18T08:47:30.517Z,1009.0
2017-08-18T08:48:31.259Z,1009.0
2017-08-18T08:49:32.014Z,1009.0
2017-08-18T08:50:32.790Z,1009.1
2017-08-18T08:51:33.469Z,1009.0
2017-08-18T08:52:34.590Z,1009.0
2017-08-18T08:53:35.657Z,1009.0
2017-08-18T08:54:36.363Z,1009.0
2017-08-18T08:55:37.117Z,1009.0
2017-08-18T08:56:37.817Z,1009.1
2017-08-18T08:57:38.528Z,1009.1
2017-08-18T08:59:54.776Z,1009.0
2017-08-18T09:00:55.521Z,1009.0
2017-08-18T09:01:56.566Z,1009.0
2017-08-18T09:02:57.263Z,1008.9
2017-08-18T09:03:57.927Z,1008.9
2017-08-18T09:04:58.866Z,1008.9
2017-08-18T09:05:59.571Z,1008.9
2017-08-18T09:07:00.358Z,1008.9
2017-08-18T09:08:01.471Z,1008.9
2017-08-18T09:09:02.264Z,1008.9
2017-08-18T09:10:02.935Z,1008.9
2017-08-18T09:11:03.933Z,1008.9
2017-08-18T09:12:04.600Z,1008.9
2017-08-18T09:13:05.350Z,1009.0
2017-08-18T09:14:06.426Z,1009.0
2017-08-18T09:15:07.097Z,1009.0
2017-08-18T09:16:07.873Z,1009.0
2017-08-18T09:17:08.553Z,1009.0
2017-08-18T09:18:09.302Z,1009.1
2017-08-18T09:19:09.987Z,1009.1
2017-08-18T09:20:10.702Z,1009.1
2017-08-18T09:21:11.428Z,1009.1
2017-08-18T09:22:12.259Z,1009.1
2017-08-18T09:23:13.259Z,1009.1
2017-08-18T09:24:13.975Z,1009.1
2017-08-18T09:25:14.648Z,1009.1
2017-08-18T09:26:15.349Z,1009.2
2017-08-18T09:27:16.077Z,1009.2
2017-08-18T09:28:16.843Z,1009.2
2017-08-18T09:29:17.834Z,1009.2
2017-08-18T09:30:18.504Z,1009.2
2017-08-18T09:31:19.197Z,1009.2
2017-08-18T09:32:19.962Z,1009.2
2017-08-18T09:33:20.648Z,1009.2
2017-08-18T09:34:21.651Z,1009.2
2017-08-18T09:35:22.700Z,1009.2
2017-08-18T09:36:23.414Z,1009.2
2017-08-18T09:37:24.148Z,1009.2
2017-08-18T09:38:24.858Z,1009.2
2017-08-18T09:39:25.546Z,1009.1
2017-08-18T09:40:26.322Z,1009.1
2017-08-18T09:41:27.308Z,1009.1
2017-08-18T09:42:28.083Z,1009.1
2017-08-18T09:43:28.862Z,1009.0
2017-08-18T09:44:29.594Z,1009.0
2017-08-18T09:45:30.268Z,1009.0
2017-08-18T09:46:31.004Z,1009.1
2017-08-18T09:47:31.925Z,1009.0
2017-08-18T09:48:32.672Z,1009.0
2017-08-18T09:49:33.433Z,1009.0
2017-08-18T09:50:34.152Z,1009.0
2017-08-18T09:51:34.840Z,1009.0
2017-08-18T09:52:35.584Z,1009.0
2017-08-18T09:53:36.364Z,1009.0
2017-08-18T09:54:37.358Z,1008.9
2017-08-18T09:55:38.113Z,1009.0
2017-08-18T09:56:39.107Z,1009.0
2017-08-18T09:57:39.814Z,1009.0
2017-08-18T09:58:40.575Z,1009.0
2017-08-18T09:59:41.276Z,1009.0
2017-08-18T10:00:42.237Z,1009.0
2017-08-18T10:01:43.004Z,1009.0
2017-08-18T10:02:44.033Z,1008.9
2017-08-18T10:03:44.851Z,1008.9
2017-08-18T10:04:45.666Z,1008.9
2017-08-18T10:05:46.350Z,1008.9
2017-08-18T10:06:47.343Z,1008.9
2017-08-18T10:07:48.051Z,1008.8
2017-08-18T10:08:48.836Z,1008.8
2017-08-18T10:09:49.531Z,1008.8
2017-08-18T10:10:50.240Z,1008.7
2017-08-18T10:11:50.946Z,1008.7
2017-08-18T10:12:51.925Z,1008.7
2017-08-18T10:13:52.629Z,1008.7
2017-08-18T10:14:53.379Z,1008.6
2017-08-18T10:15:54.071Z,1008.7
2017-08-18T10:16:54.785Z,1008.6
2017-08-18T10:17:55.545Z,1008.6
2017-08-18T10:18:56.813Z,1008.6
2017-08-18T10:19:57.584Z,1008.5
2017-08-18T10:20:58.357Z,1008.5
2017-08-18T10:21:59.037Z,1008.5
2017-08-18T10:22:59.734Z,1008.5
2017-08-18T10:24:00.741Z,1008.5
2017-08-18T10:25:01.787Z,1008.5
2017-08-18T10:26:02.517Z,1008.5
2017-08-18T10:27:03.260Z,1008.5
2017-08-18T10:28:03.935Z,1008.5
2017-08-18T10:29:04.626Z,1008.5
2017-08-18T10:30:05.399Z,1008.5
2017-08-18T10:31:06.352Z,1008.5
2017-08-18T10:32:07.075Z,1008.5
2017-08-18T10:33:07.787Z,1008.5
2017-08-18T10:34:08.469Z,1008.4
2017-08-18T10:35:09.165Z,1008.4
2017-08-18T10:36:09.876Z,1008.4
2017-08-18T10:37:10.570Z,1008.4
2017-08-18T10:38:11.581Z,1008.4
2017-08-18T10:39:12.381Z,1008.4
2017-08-18T10:40:13.425Z,1008.4
2017-08-18T10:41:14.116Z,1008.4
2017-08-18T10:42:14.815Z,1008.3
2017-08-18T10:43:15.515Z,1008.4
2017-08-18T10:44:16.466Z,1008.3
2017-08-18T10:45:17.167Z,1008.3
2017-08-18T10:46:17.925Z,1008.4
2017-08-18T10:47:18.618Z,1008.4
2017-08-18T10:48:19.313Z,1008.4
2017-08-18T10:49:20.454Z,1008.4
2017-08-18T10:50:21.384Z,1008.4
2017-08-18T10:51:22.074Z,1008.4
2017-08-18T10:52:22.772Z,1008.4
2017-08-18T10:53:23.494Z,1008.4
2017-08-18T10:54:24.176Z,1008.4
2017-08-18T10:55:25.357Z,1008.4
2017-08-18T10:56:26.375Z,1008.4
2017-08-18T10:57:27.138Z,1008.3
2017-08-18T10:58:27.840Z,1008.4
2017-08-18T10:59:28.621Z,1008.4
2017-08-18T11:00:29.311Z,1008.3
2017-08-18T11:01:30.001Z,1008.3
2017-08-18T11:02:31.008Z,1008.3
2017-08-18T11:03:31.765Z,1008.4
2017-08-18T11:04:32.481Z,1008.3
2017-08-18T11:05:33.348Z,1008.3
2017-08-18T11:06:34.355Z,1008.3
2017-08-18T11:07:35.137Z,1008.3
2017-08-18T11:08:36.123Z,1008.2
2017-08-18T11:09:36.824Z,1008.2
2017-08-18T11:10:37.535Z,1008.2
2017-08-18T11:11:38.236Z,1008.2
2017-08-18T11:12:39.000Z,1008.1
2017-08-18T11:13:39.684Z,1008.1
2017-08-18T11:14:40.682Z,1008.1
2017-08-18T11:15:41.434Z,1008.1
2017-08-18T11:16:42.125Z,1008.1
2017-08-18T11:17:42.865Z,1008.1
2017-08-18T11:18:43.549Z,1008.1
2017-08-18T11:19:44.242Z,1008.1
2017-08-18T11:20:45.076Z,1008.0
2017-08-18T11:21:46.017Z,1008.0
2017-08-18T11:22:46.726Z,1008.0
2017-08-18T11:23:47.428Z,1008.0
2017-08-18T11:24:48.111Z,1008.0
2017-08-18T11:25:48.821Z,1008.0
2017-08-18T11:26:49.508Z,1008.0
2017-08-18T11:27:50.438Z,1008.0
2017-08-18T11:28:51.137Z,1008.0
2017-08-18T11:29:51.882Z,1008.0
2017-08-18T11:30:52.575Z,1008.0
2017-08-18T11:31:53.311Z,1007.9
2017-08-18T11:32:54.006Z,1008.0
2017-08-18T11:33:54.990Z,1008.0
2017-08-18T11:34:55.759Z,1007.9
2017-08-18T11:35:56.521Z,1007.9
2017-08-18T11:36:57.190Z,1007.9
2017-08-18T11:37:57.903Z,1007.9
2017-08-18T11:38:58.655Z,1007.9
2017-08-18T11:39:59.588Z,1007.9
2017-08-18T11:41:00.352Z,1007.9
2017-08-18T11:42:01.111Z,1007.8
2017-08-18T11:43:01.784Z,1007.9
2017-08-18T11:44:02.479Z,1007.8
2017-08-18T11:45:03.205Z,1007.8
2017-08-18T11:46:04.292Z,1007.8
2017-08-18T11:47:05.053Z,1007.8
2017-08-18T11:48:05.798Z,1007.8
2017-08-18T11:49:06.807Z,1007.8
2017-08-18T11:50:07.570Z,1007.8
2017-08-18T11:51:08.316Z,1007.8
2017-08-18T11:52:09.244Z,1007.8
2017-08-18T11:53:09.941Z,1007.9
2017-08-18T11:54:10.631Z,1007.9
2017-08-18T11:55:11.412Z,1007.9
2017-08-18T11:56:12.230Z,1007.9
2017-08-18T11:57:12.957Z,1007.8
2017-08-18T11:58:13.975Z,1007.6
2017-08-18T11:59:14.670Z,1007.7
2017-08-18T12:00:15.359Z,1007.8
2017-08-18T12:01:16.059Z,1007.9
2017-08-18T12:02:16.764Z,1008.0
2017-08-18T12:03:17.450Z,1008.0
2017-08-18T12:04:18.389Z,1008.2
2017-08-18T12:05:19.138Z,1008.1
2017-08-18T12:06:20.031Z,1008.1
2017-08-18T12:07:20.733Z,1008.1
2017-08-18T12:08:21.422Z,1008.1
2017-08-18T12:09:22.440Z,1008.1
2017-08-18T12:10:23.405Z,1008.1
2017-08-18T12:11:24.195Z,1008.1
2017-08-18T12:12:24.887Z,1008.1
2017-08-18T12:13:25.643Z,1008.1
2017-08-18T12:14:26.375Z,1008.1
2017-08-18T12:15:27.149Z,1008.1
2017-08-18T12:16:28.214Z,1008.0
2017-08-18T12:17:28.986Z,1008.1
2017-08-18T12:18:29.664Z,1008.0
2017-08-18T12:19:30.726Z,1008.0
2017-08-18T12:20:31.489Z,1008.0
2017-08-18T12:21:32.294Z,1008.0
2017-08-18T12:22:33.584Z,1008.0
2017-08-18T12:23:34.346Z,1007.9
2017-08-18T12:24:35.026Z,1008.0
2017-08-18T12:25:35.709Z,1008.0
2017-08-18T12:26:36.468Z,1008.0
2017-08-18T12:27:37.155Z,1007.9
2017-08-18T12:28:38.139Z,1007.9
2017-08-18T12:29:38.839Z,1007.8
2017-08-18T12:30:39.525Z,1007.9
2017-08-18T12:31:40.539Z,1007.9
2017-08-18T12:32:41.293Z,1007.9
2017-08-18T12:33:41.977Z,1007.9
2017-08-18T12:34:42.750Z,1007.9
2017-08-18T12:35:43.757Z,1007.9
2017-08-18T12:36:44.458Z,1007.9
2017-08-18T12:37:45.214Z,1007.9
2017-08-18T12:38:45.960Z,1008.0
2017-08-18T12:39:46.695Z,1007.9